sensor_id;sensor_type;location;lat;lon;timestamp;P1;durP1;ratioP1;P2;durP2;ratioP2
12367;SDS011;6248;49.812;6.620;2023-02-19T00:00:11;3.47;;;3.17;;
12367;SDS011;6248;49.812;6.620;2023-02-19T00:02:40;3.70;;;3.40;;
12367;SDS011;6248;49.812;6.620;2023-02-19T00:05:07;3.20;;;3.00;;
12367;SDS011;6248;49.812;6.620;2023-02-19T00:07:34;3.33;;;3.03;;
12367;SDS011;6248;49.812;6.620;2023-02-19T00:10:01;3.57;;;3.27;;
12367;SDS011;6248;49.812;6.620;2023-02-19T00:12:28;3.50;;;3.30;;
12367;SDS011;6248;49.812;6.620;2023-02-19T00:14:57;3.60;;;3.30;;
12367;SDS011;6248;49.812;6.620;2023-02-19T00:17:25;3.43;;;3.20;;
12367;SDS011;6248;49.812;6.620;2023-02-19T00:19:52;3.40;;;3.20;;
12367;SDS011;6248;49.812;6.620;2023-02-19T00:22:19;3.80;;;3.50;;
12367;SDS011;6248;49.812;6.620;2023-02-19T00:24:47;4.00;;;3.70;;
12367;SDS011;6248;49.812;6.620;2023-02-19T00:27:14;3.87;;;3.53;;
12367;SDS011;6248;49.812;6.620;2023-02-19T00:29:41;3.80;;;3.50;;
12367;SDS011;6248;49.812;6.620;2023-02-19T00:32:08;4.00;;;3.70;;
12367;SDS011;6248;49.812;6.620;2023-02-19T00:34:37;3.97;;;3.67;;
12367;SDS011;6248;49.812;6.620;2023-02-19T00:37:04;3.83;;;3.50;;
12367;SDS011;6248;49.812;6.620;2023-02-19T00:39:31;4.27;;;3.87;;
12367;SDS011;6248;49.812;6.620;2023-02-19T00:41:58;3.97;;;3.67;;
12367;SDS011;6248;49.812;6.620;2023-02-19T00:44:26;4.60;;;4.30;;
12367;SDS011;6248;49.812;6.620;2023-02-19T00:46:53;4.27;;;3.87;;
12367;SDS011;6248;49.812;6.620;2023-02-19T00:49:20;5.10;;;4.43;;
12367;SDS011;6248;49.812;6.620;2023-02-19T00:51:50;4.70;;;4.30;;
12367;SDS011;6248;49.812;6.620;2023-02-19T00:54:17;4.30;;;4.00;;
12367;SDS011;6248;49.812;6.620;2023-02-19T00:56:44;4.93;;;4.53;;
12367;SDS011;6248;49.812;6.620;2023-02-19T00:59:11;4.50;;;4.20;;
12367;SDS011;6248;49.812;6.620;2023-02-19T01:01:38;4.97;;;4.53;;
12367;SDS011;6248;49.812;6.620;2023-02-19T01:04:06;4.60;;;4.17;;
12367;SDS011;6248;49.812;6.620;2023-02-19T01:06:33;4.63;;;4.23;;
12367;SDS011;6248;49.812;6.620;2023-02-19T01:09:01;4.30;;;3.90;;
12367;SDS011;6248;49.812;6.620;2023-02-19T01:11:29;4.33;;;4.03;;
12367;SDS011;6248;49.812;6.620;2023-02-19T01:13:56;4.80;;;4.40;;
12367;SDS011;6248;49.812;6.620;2023-02-19T01:16:23;5.33;;;4.43;;
12367;SDS011;6248;49.812;6.620;2023-02-19T01:18:51;5.07;;;4.60;;
12367;SDS011;6248;49.812;6.620;2023-02-19T01:21:19;5.23;;;4.50;;
12367;SDS011;6248;49.812;6.620;2023-02-19T01:23:47;6.13;;;4.83;;
12367;SDS011;6248;49.812;6.620;2023-02-19T01:26:16;5.27;;;4.77;;
12367;SDS011;6248;49.812;6.620;2023-02-19T01:28:44;5.50;;;5.03;;
12367;SDS011;6248;49.812;6.620;2023-02-19T01:31:12;6.40;;;5.80;;
12367;SDS011;6248;49.812;6.620;2023-02-19T01:33:42;6.07;;;5.57;;
12367;SDS011;6248;49.812;6.620;2023-02-19T01:36:10;5.90;;;5.40;;
12367;SDS011;6248;49.812;6.620;2023-02-19T01:38:37;5.63;;;5.13;;
12367;SDS011;6248;49.812;6.620;2023-02-19T01:41:05;6.80;;;5.70;;
12367;SDS011;6248;49.812;6.620;2023-02-19T01:46:16;5.80;;;5.27;;
12367;SDS011;6248;49.812;6.620;2023-02-19T01:48:44;5.40;;;5.00;;
12367;SDS011;6248;49.812;6.620;2023-02-19T01:51:11;5.63;;;5.20;;
12367;SDS011;6248;49.812;6.620;2023-02-19T01:53:40;5.80;;;5.30;;
12367;SDS011;6248;49.812;6.620;2023-02-19T01:56:09;5.80;;;5.30;;
12367;SDS011;6248;49.812;6.620;2023-02-19T01:58:37;6.00;;;5.50;;
12367;SDS011;6248;49.812;6.620;2023-02-19T02:01:06;5.30;;;4.80;;
12367;SDS011;6248;49.812;6.620;2023-02-19T02:03:35;6.40;;;5.73;;
12367;SDS011;6248;49.812;6.620;2023-02-19T02:06:04;5.80;;;5.30;;
12367;SDS011;6248;49.812;6.620;2023-02-19T02:08:35;5.90;;;5.40;;
12367;SDS011;6248;49.812;6.620;2023-02-19T02:11:20;6.20;;;5.63;;
12367;SDS011;6248;49.812;6.620;2023-02-19T02:13:48;5.73;;;5.27;;
12367;SDS011;6248;49.812;6.620;2023-02-19T02:16:21;5.70;;;5.30;;
12367;SDS011;6248;49.812;6.620;2023-02-19T02:18:53;6.00;;;5.50;;
12367;SDS011;6248;49.812;6.620;2023-02-19T02:21:26;5.93;;;5.43;;
12367;SDS011;6248;49.812;6.620;2023-02-19T02:24:00;6.13;;;5.63;;
12367;SDS011;6248;49.812;6.620;2023-02-19T02:26:34;6.30;;;5.80;;
12367;SDS011;6248;49.812;6.620;2023-02-19T02:32:02;6.10;;;5.50;;
12367;SDS011;6248;49.812;6.620;2023-02-19T02:34:32;6.30;;;5.80;;
12367;SDS011;6248;49.812;6.620;2023-02-19T02:37:00;6.33;;;5.70;;
12367;SDS011;6248;49.812;6.620;2023-02-19T02:39:28;6.30;;;5.80;;
12367;SDS011;6248;49.812;6.620;2023-02-19T02:41:56;5.90;;;5.43;;
12367;SDS011;6248;49.812;6.620;2023-02-19T02:44:42;5.83;;;5.33;;
12367;SDS011;6248;49.812;6.620;2023-02-19T02:47:32;5.57;;;5.13;;
12367;SDS011;6248;49.812;6.620;2023-02-19T02:50:06;5.60;;;5.20;;
12367;SDS011;6248;49.812;6.620;2023-02-19T02:52:35;5.90;;;5.00;;
12367;SDS011;6248;49.812;6.620;2023-02-19T02:55:21;5.87;;;5.00;;
12367;SDS011;6248;49.812;6.620;2023-02-19T02:57:49;5.33;;;4.93;;
12367;SDS011;6248;49.812;6.620;2023-02-19T03:00:16;6.43;;;5.10;;
12367;SDS011;6248;49.812;6.620;2023-02-19T03:02:45;5.93;;;5.40;;
12367;SDS011;6248;49.812;6.620;2023-02-19T03:05:12;5.13;;;4.73;;
12367;SDS011;6248;49.812;6.620;2023-02-19T03:07:59;5.03;;;4.63;;
12367;SDS011;6248;49.812;6.620;2023-02-19T03:10:30;5.70;;;5.20;;
12367;SDS011;6248;49.812;6.620;2023-02-19T03:13:00;5.60;;;5.10;;
12367;SDS011;6248;49.812;6.620;2023-02-19T03:15:46;5.30;;;4.90;;
12367;SDS011;6248;49.812;6.620;2023-02-19T03:18:42;5.27;;;4.87;;
12367;SDS011;6248;49.812;6.620;2023-02-19T03:21:28;5.33;;;4.93;;
12367;SDS011;6248;49.812;6.620;2023-02-19T03:23:58;5.57;;;5.17;;
12367;SDS011;6248;49.812;6.620;2023-02-19T03:26:43;5.67;;;5.17;;
12367;SDS011;6248;49.812;6.620;2023-02-19T03:29:18;5.00;;;4.60;;
12367;SDS011;6248;49.812;6.620;2023-02-19T03:31:51;5.30;;;4.90;;
12367;SDS011;6248;49.812;6.620;2023-02-19T03:34:21;5.80;;;5.30;;
12367;SDS011;6248;49.812;6.620;2023-02-19T03:36:52;5.83;;;5.33;;
12367;SDS011;6248;49.812;6.620;2023-02-19T03:39:21;4.83;;;4.43;;
12367;SDS011;6248;49.812;6.620;2023-02-19T03:41:52;5.10;;;4.70;;
12367;SDS011;6248;49.812;6.620;2023-02-19T03:44:24;4.73;;;4.43;;
12367;SDS011;6248;49.812;6.620;2023-02-19T03:46:54;5.57;;;5.07;;
12367;SDS011;6248;49.812;6.620;2023-02-19T03:49:25;5.17;;;4.77;;
12367;SDS011;6248;49.812;6.620;2023-02-19T03:51:56;4.80;;;4.50;;
12367;SDS011;6248;49.812;6.620;2023-02-19T03:54:29;6.03;;;5.53;;
12367;SDS011;6248;49.812;6.620;2023-02-19T03:56:59;5.03;;;4.60;;
12367;SDS011;6248;49.812;6.620;2023-02-19T03:59:29;4.30;;;3.90;;
12367;SDS011;6248;49.812;6.620;2023-02-19T04:01:59;3.27;;;3.07;;
12367;SDS011;6248;49.812;6.620;2023-02-19T04:04:29;2.97;;;2.60;;
12367;SDS011;6248;49.812;6.620;2023-02-19T04:06:57;2.50;;;2.30;;
12367;SDS011;6248;49.812;6.620;2023-02-19T04:09:25;2.33;;;2.17;;
12367;SDS011;6248;49.812;6.620;2023-02-19T04:11:53;2.03;;;1.80;;
12367;SDS011;6248;49.812;6.620;2023-02-19T04:14:21;1.93;;;1.83;;
12367;SDS011;6248;49.812;6.620;2023-02-19T04:16:52;2.00;;;1.80;;
12367;SDS011;6248;49.812;6.620;2023-02-19T04:19:22;2.10;;;2.00;;
12367;SDS011;6248;49.812;6.620;2023-02-19T04:21:52;2.77;;;2.57;;
12367;SDS011;6248;49.812;6.620;2023-02-19T04:24:20;2.87;;;2.67;;
12367;SDS011;6248;49.812;6.620;2023-02-19T04:26:48;3.20;;;3.00;;
12367;SDS011;6248;49.812;6.620;2023-02-19T04:29:16;2.50;;;2.30;;
12367;SDS011;6248;49.812;6.620;2023-02-19T04:31:43;2.60;;;2.40;;
12367;SDS011;6248;49.812;6.620;2023-02-19T04:34:10;2.73;;;2.20;;
12367;SDS011;6248;49.812;6.620;2023-02-19T04:36:37;4.23;;;2.33;;
12367;SDS011;6248;49.812;6.620;2023-02-19T04:39:06;2.30;;;2.10;;
12367;SDS011;6248;49.812;6.620;2023-02-19T04:41:33;2.70;;;2.07;;
12367;SDS011;6248;49.812;6.620;2023-02-19T04:44:00;2.93;;;1.83;;
12367;SDS011;6248;49.812;6.620;2023-02-19T04:46:27;5.60;;;2.60;;
12367;SDS011;6248;49.812;6.620;2023-02-19T04:48:54;4.20;;;2.83;;
12367;SDS011;6248;49.812;6.620;2023-02-19T04:51:21;2.43;;;2.23;;
12367;SDS011;6248;49.812;6.620;2023-02-19T04:53:49;3.03;;;2.73;;
12367;SDS011;6248;49.812;6.620;2023-02-19T04:56:17;3.20;;;2.10;;
12367;SDS011;6248;49.812;6.620;2023-02-19T04:58:44;3.00;;;2.00;;
12367;SDS011;6248;49.812;6.620;2023-02-19T05:01:11;3.23;;;2.20;;
12367;SDS011;6248;49.812;6.620;2023-02-19T05:03:39;4.07;;;2.07;;
12367;SDS011;6248;49.812;6.620;2023-02-19T05:06:07;2.57;;;2.10;;
12367;SDS011;6248;49.812;6.620;2023-02-19T05:08:34;1.80;;;1.70;;
12367;SDS011;6248;49.812;6.620;2023-02-19T05:11:02;2.67;;;1.80;;
12367;SDS011;6248;49.812;6.620;2023-02-19T05:13:31;3.60;;;2.10;;
12367;SDS011;6248;49.812;6.620;2023-02-19T05:15:59;2.20;;;1.90;;
12367;SDS011;6248;49.812;6.620;2023-02-19T05:18:27;2.60;;;1.53;;
12367;SDS011;6248;49.812;6.620;2023-02-19T05:20:55;2.33;;;1.67;;
12367;SDS011;6248;49.812;6.620;2023-02-19T05:23:23;3.30;;;1.80;;
12367;SDS011;6248;49.812;6.620;2023-02-19T05:25:50;2.63;;;1.73;;
12367;SDS011;6248;49.812;6.620;2023-02-19T05:28:18;3.10;;;1.70;;
12367;SDS011;6248;49.812;6.620;2023-02-19T05:30:48;3.60;;;1.80;;
12367;SDS011;6248;49.812;6.620;2023-02-19T05:33:15;1.83;;;1.70;;
12367;SDS011;6248;49.812;6.620;2023-02-19T05:35:43;3.23;;;1.70;;
12367;SDS011;6248;49.812;6.620;2023-02-19T05:38:10;2.53;;;1.43;;
12367;SDS011;6248;49.812;6.620;2023-02-19T05:40:38;2.40;;;1.60;;
12367;SDS011;6248;49.812;6.620;2023-02-19T05:43:05;3.30;;;1.60;;
12367;SDS011;6248;49.812;6.620;2023-02-19T05:45:33;4.30;;;1.73;;
12367;SDS011;6248;49.812;6.620;2023-02-19T05:48:01;3.80;;;1.57;;
12367;SDS011;6248;49.812;6.620;2023-02-19T05:50:29;3.47;;;1.60;;
12367;SDS011;6248;49.812;6.620;2023-02-19T05:52:58;4.40;;;1.70;;
12367;SDS011;6248;49.812;6.620;2023-02-19T05:55:26;3.47;;;1.53;;
12367;SDS011;6248;49.812;6.620;2023-02-19T05:57:53;3.80;;;1.53;;
12367;SDS011;6248;49.812;6.620;2023-02-19T06:00:20;2.37;;;1.63;;
12367;SDS011;6248;49.812;6.620;2023-02-19T06:02:51;4.53;;;1.67;;
12367;SDS011;6248;49.812;6.620;2023-02-19T06:05:19;3.37;;;1.63;;
12367;SDS011;6248;49.812;6.620;2023-02-19T06:07:47;3.00;;;1.30;;
12367;SDS011;6248;49.812;6.620;2023-02-19T06:10:15;3.77;;;1.80;;
12367;SDS011;6248;49.812;6.620;2023-02-19T06:12:42;4.00;;;1.40;;
12367;SDS011;6248;49.812;6.620;2023-02-19T06:15:09;6.00;;;1.93;;
12367;SDS011;6248;49.812;6.620;2023-02-19T06:17:36;5.80;;;1.70;;
12367;SDS011;6248;49.812;6.620;2023-02-19T06:20:04;3.93;;;1.90;;
12367;SDS011;6248;49.812;6.620;2023-02-19T06:22:32;5.57;;;1.47;;
12367;SDS011;6248;49.812;6.620;2023-02-19T06:24:59;3.47;;;1.60;;
12367;SDS011;6248;49.812;6.620;2023-02-19T06:27:26;6.13;;;1.80;;
12367;SDS011;6248;49.812;6.620;2023-02-19T06:29:54;4.23;;;1.77;;
12367;SDS011;6248;49.812;6.620;2023-02-19T06:32:21;4.90;;;1.53;;
12367;SDS011;6248;49.812;6.620;2023-02-19T06:34:48;3.33;;;1.43;;
12367;SDS011;6248;49.812;6.620;2023-02-19T06:37:15;4.63;;;1.80;;
12367;SDS011;6248;49.812;6.620;2023-02-19T06:39:43;4.03;;;1.73;;
12367;SDS011;6248;49.812;6.620;2023-02-19T06:42:10;9.00;;;2.03;;
12367;SDS011;6248;49.812;6.620;2023-02-19T06:44:37;4.40;;;1.83;;
12367;SDS011;6248;49.812;6.620;2023-02-19T06:47:04;8.80;;;1.80;;
12367;SDS011;6248;49.812;6.620;2023-02-19T06:49:32;6.13;;;2.07;;
12367;SDS011;6248;49.812;6.620;2023-02-19T06:52:02;6.93;;;2.07;;
12367;SDS011;6248;49.812;6.620;2023-02-19T06:54:29;5.43;;;2.17;;
12367;SDS011;6248;49.812;6.620;2023-02-19T06:56:58;3.67;;;1.97;;
12367;SDS011;6248;49.812;6.620;2023-02-19T06:59:26;4.60;;;1.60;;
12367;SDS011;6248;49.812;6.620;2023-02-19T07:01:53;3.43;;;1.90;;
12367;SDS011;6248;49.812;6.620;2023-02-19T07:04:20;4.27;;;1.80;;
12367;SDS011;6248;49.812;6.620;2023-02-19T07:06:47;7.93;;;2.13;;
12367;SDS011;6248;49.812;6.620;2023-02-19T07:09:14;5.27;;;1.90;;
12367;SDS011;6248;49.812;6.620;2023-02-19T07:11:42;5.90;;;1.83;;
12367;SDS011;6248;49.812;6.620;2023-02-19T07:14:12;2.97;;;1.67;;
12367;SDS011;6248;49.812;6.620;2023-02-19T07:16:40;4.07;;;1.80;;
12367;SDS011;6248;49.812;6.620;2023-02-19T07:19:08;4.87;;;1.93;;
12367;SDS011;6248;49.812;6.620;2023-02-19T07:21:35;4.57;;;2.20;;
12367;SDS011;6248;49.812;6.620;2023-02-19T07:24:03;4.50;;;2.00;;
12367;SDS011;6248;49.812;6.620;2023-02-19T07:26:30;4.23;;;2.17;;
12367;SDS011;6248;49.812;6.620;2023-02-19T07:28:57;3.53;;;1.80;;
12367;SDS011;6248;49.812;6.620;2023-02-19T07:31:26;5.40;;;2.00;;
12367;SDS011;6248;49.812;6.620;2023-02-19T07:33:53;4.63;;;2.00;;
12367;SDS011;6248;49.812;6.620;2023-02-19T07:36:21;5.10;;;2.00;;
12367;SDS011;6248;49.812;6.620;2023-02-19T07:38:51;4.27;;;2.03;;
12367;SDS011;6248;49.812;6.620;2023-02-19T07:41:20;4.67;;;1.80;;
12367;SDS011;6248;49.812;6.620;2023-02-19T07:43:47;7.30;;;2.07;;
12367;SDS011;6248;49.812;6.620;2023-02-19T07:46:14;6.33;;;2.43;;
12367;SDS011;6248;49.812;6.620;2023-02-19T07:48:42;6.07;;;2.10;;
12367;SDS011;6248;49.812;6.620;2023-02-19T07:51:10;5.67;;;2.30;;
12367;SDS011;6248;49.812;6.620;2023-02-19T07:53:38;4.97;;;2.30;;
12367;SDS011;6248;49.812;6.620;2023-02-19T07:56:05;7.03;;;2.27;;
12367;SDS011;6248;49.812;6.620;2023-02-19T07:58:33;6.83;;;2.40;;
12367;SDS011;6248;49.812;6.620;2023-02-19T08:01:05;7.50;;;2.40;;
12367;SDS011;6248;49.812;6.620;2023-02-19T08:03:32;7.60;;;2.67;;
12367;SDS011;6248;49.812;6.620;2023-02-19T08:06:00;6.83;;;2.50;;
12367;SDS011;6248;49.812;6.620;2023-02-19T08:08:27;4.67;;;2.10;;
12367;SDS011;6248;49.812;6.620;2023-02-19T08:10:58;7.30;;;2.43;;
12367;SDS011;6248;49.812;6.620;2023-02-19T08:13:24;5.60;;;2.37;;
12367;SDS011;6248;49.812;6.620;2023-02-19T08:15:53;8.43;;;2.20;;
12367;SDS011;6248;49.812;6.620;2023-02-19T08:18:21;7.00;;;2.67;;
12367;SDS011;6248;49.812;6.620;2023-02-19T08:20:50;3.70;;;2.07;;
12367;SDS011;6248;49.812;6.620;2023-02-19T08:23:19;5.67;;;2.60;;
12367;SDS011;6248;49.812;6.620;2023-02-19T08:25:46;6.60;;;2.37;;
12367;SDS011;6248;49.812;6.620;2023-02-19T08:28:16;8.00;;;2.37;;
12367;SDS011;6248;49.812;6.620;2023-02-19T08:30:44;8.97;;;2.97;;
12367;SDS011;6248;49.812;6.620;2023-02-19T08:33:12;7.77;;;2.57;;
12367;SDS011;6248;49.812;6.620;2023-02-19T08:35:40;7.13;;;2.43;;
12367;SDS011;6248;49.812;6.620;2023-02-19T08:38:07;5.40;;;2.70;;
12367;SDS011;6248;49.812;6.620;2023-02-19T08:40:37;6.73;;;2.97;;
12367;SDS011;6248;49.812;6.620;2023-02-19T08:43:04;7.20;;;2.40;;
12367;SDS011;6248;49.812;6.620;2023-02-19T08:45:35;5.10;;;2.37;;
12367;SDS011;6248;49.812;6.620;2023-02-19T08:48:03;7.63;;;2.60;;
12367;SDS011;6248;49.812;6.620;2023-02-19T08:50:30;6.10;;;2.13;;
12367;SDS011;6248;49.812;6.620;2023-02-19T08:52:58;8.53;;;2.60;;
12367;SDS011;6248;49.812;6.620;2023-02-19T08:55:25;6.93;;;2.47;;
12367;SDS011;6248;49.812;6.620;2023-02-19T08:57:53;3.63;;;2.20;;
12367;SDS011;6248;49.812;6.620;2023-02-19T09:00:21;9.13;;;2.63;;
12367;SDS011;6248;49.812;6.620;2023-02-19T09:02:48;8.43;;;2.33;;
12367;SDS011;6248;49.812;6.620;2023-02-19T09:05:16;5.83;;;2.20;;
12367;SDS011;6248;49.812;6.620;2023-02-19T09:07:43;6.33;;;2.63;;
12367;SDS011;6248;49.812;6.620;2023-02-19T09:10:10;9.50;;;2.77;;
12367;SDS011;6248;49.812;6.620;2023-02-19T09:12:38;7.67;;;2.60;;
12367;SDS011;6248;49.812;6.620;2023-02-19T09:15:07;8.40;;;2.47;;
12367;SDS011;6248;49.812;6.620;2023-02-19T09:17:34;6.23;;;2.67;;
12367;SDS011;6248;49.812;6.620;2023-02-19T09:20:01;5.70;;;2.27;;
12367;SDS011;6248;49.812;6.620;2023-02-19T09:22:29;7.90;;;2.60;;
12367;SDS011;6248;49.812;6.620;2023-02-19T09:24:56;6.60;;;2.23;;
12367;SDS011;6248;49.812;6.620;2023-02-19T09:27:23;6.37;;;2.13;;
12367;SDS011;6248;49.812;6.620;2023-02-19T09:29:50;6.97;;;2.40;;
12367;SDS011;6248;49.812;6.620;2023-02-19T09:32:20;7.07;;;2.47;;
12367;SDS011;6248;49.812;6.620;2023-02-19T09:34:48;7.50;;;2.40;;
12367;SDS011;6248;49.812;6.620;2023-02-19T09:37:15;5.70;;;2.53;;
12367;SDS011;6248;49.812;6.620;2023-02-19T09:39:42;5.47;;;2.33;;
12367;SDS011;6248;49.812;6.620;2023-02-19T09:42:10;4.03;;;2.23;;
12367;SDS011;6248;49.812;6.620;2023-02-19T09:44:39;7.10;;;2.40;;
12367;SDS011;6248;49.812;6.620;2023-02-19T09:47:10;8.47;;;2.77;;
12367;SDS011;6248;49.812;6.620;2023-02-19T09:49:40;5.43;;;1.87;;
12367;SDS011;6248;49.812;6.620;2023-02-19T09:52:14;5.23;;;2.10;;
12367;SDS011;6248;49.812;6.620;2023-02-19T09:54:43;9.30;;;2.77;;
12367;SDS011;6248;49.812;6.620;2023-02-19T09:57:13;7.47;;;2.90;;
12367;SDS011;6248;49.812;6.620;2023-02-19T09:59:40;6.97;;;2.43;;
12367;SDS011;6248;49.812;6.620;2023-02-19T10:02:13;5.67;;;2.30;;
12367;SDS011;6248;49.812;6.620;2023-02-19T10:04:43;7.30;;;2.50;;
12367;SDS011;6248;49.812;6.620;2023-02-19T10:07:11;7.00;;;2.37;;
12367;SDS011;6248;49.812;6.620;2023-02-19T10:09:38;9.27;;;2.47;;
12367;SDS011;6248;49.812;6.620;2023-02-19T10:12:12;6.67;;;3.00;;
12367;SDS011;6248;49.812;6.620;2023-02-19T10:14:41;6.70;;;2.77;;
12367;SDS011;6248;49.812;6.620;2023-02-19T10:17:12;7.57;;;2.97;;
12367;SDS011;6248;49.812;6.620;2023-02-19T10:19:44;7.00;;;2.30;;
12367;SDS011;6248;49.812;6.620;2023-02-19T10:22:11;9.07;;;2.67;;
12367;SDS011;6248;49.812;6.620;2023-02-19T10:24:38;6.17;;;2.90;;
12367;SDS011;6248;49.812;6.620;2023-02-19T10:27:09;6.03;;;2.90;;
12367;SDS011;6248;49.812;6.620;2023-02-19T10:29:37;8.33;;;3.27;;
12367;SDS011;6248;49.812;6.620;2023-02-19T10:32:10;5.13;;;2.43;;
12367;SDS011;6248;49.812;6.620;2023-02-19T10:34:38;7.30;;;2.63;;
12367;SDS011;6248;49.812;6.620;2023-02-19T10:37:08;13.50;;;4.50;;
12367;SDS011;6248;49.812;6.620;2023-02-19T10:39:38;9.73;;;3.30;;
12367;SDS011;6248;49.812;6.620;2023-02-19T10:42:12;9.93;;;3.80;;
12367;SDS011;6248;49.812;6.620;2023-02-19T10:44:41;7.57;;;3.40;;
12367;SDS011;6248;49.812;6.620;2023-02-19T10:47:08;9.60;;;3.03;;
12367;SDS011;6248;49.812;6.620;2023-02-19T10:49:40;6.57;;;2.60;;
12367;SDS011;6248;49.812;6.620;2023-02-19T10:52:13;4.53;;;2.63;;
12367;SDS011;6248;49.812;6.620;2023-02-19T10:54:42;8.23;;;2.50;;
12367;SDS011;6248;49.812;6.620;2023-02-19T10:57:14;5.17;;;2.40;;
12367;SDS011;6248;49.812;6.620;2023-02-19T10:59:47;7.97;;;3.17;;
12367;SDS011;6248;49.812;6.620;2023-02-19T11:02:15;8.13;;;3.27;;
12367;SDS011;6248;49.812;6.620;2023-02-19T11:04:46;7.73;;;2.60;;
12367;SDS011;6248;49.812;6.620;2023-02-19T11:07:28;6.03;;;3.00;;
12367;SDS011;6248;49.812;6.620;2023-02-19T11:09:56;9.60;;;3.43;;
12367;SDS011;6248;49.812;6.620;2023-02-19T11:12:24;8.63;;;3.20;;
12367;SDS011;6248;49.812;6.620;2023-02-19T11:14:52;7.23;;;3.20;;
12367;SDS011;6248;49.812;6.620;2023-02-19T11:17:20;6.13;;;2.70;;
12367;SDS011;6248;49.812;6.620;2023-02-19T11:19:49;6.80;;;2.80;;
12367;SDS011;6248;49.812;6.620;2023-02-19T11:22:26;7.83;;;2.20;;
12367;SDS011;6248;49.812;6.620;2023-02-19T11:24:56;4.87;;;2.20;;
12367;SDS011;6248;49.812;6.620;2023-02-19T11:27:25;5.23;;;2.23;;
12367;SDS011;6248;49.812;6.620;2023-02-19T11:29:52;7.20;;;2.57;;
12367;SDS011;6248;49.812;6.620;2023-02-19T11:32:24;6.10;;;1.97;;
12367;SDS011;6248;49.812;6.620;2023-02-19T11:34:51;6.57;;;2.60;;
12367;SDS011;6248;49.812;6.620;2023-02-19T11:37:18;7.33;;;2.67;;
12367;SDS011;6248;49.812;6.620;2023-02-19T11:39:46;5.67;;;2.10;;
12367;SDS011;6248;49.812;6.620;2023-02-19T11:42:22;6.10;;;2.53;;
12367;SDS011;6248;49.812;6.620;2023-02-19T11:44:55;5.60;;;2.30;;
12367;SDS011;6248;49.812;6.620;2023-02-19T11:47:34;5.70;;;2.13;;
12367;SDS011;6248;49.812;6.620;2023-02-19T11:50:07;7.97;;;2.50;;
12367;SDS011;6248;49.812;6.620;2023-02-19T11:52:40;7.57;;;2.70;;
12367;SDS011;6248;49.812;6.620;2023-02-19T11:55:10;5.23;;;2.43;;
12367;SDS011;6248;49.812;6.620;2023-02-19T11:57:42;3.97;;;2.30;;
12367;SDS011;6248;49.812;6.620;2023-02-19T12:00:23;6.60;;;2.80;;
12367;SDS011;6248;49.812;6.620;2023-02-19T12:02:59;6.57;;;2.33;;
12367;SDS011;6248;49.812;6.620;2023-02-19T12:05:30;8.57;;;2.90;;
12367;SDS011;6248;49.812;6.620;2023-02-19T12:08:07;6.30;;;2.63;;
12367;SDS011;6248;49.812;6.620;2023-02-19T12:10:41;7.53;;;2.50;;
12367;SDS011;6248;49.812;6.620;2023-02-19T12:13:14;7.13;;;2.37;;
12367;SDS011;6248;49.812;6.620;2023-02-19T12:15:48;6.23;;;2.97;;
12367;SDS011;6248;49.812;6.620;2023-02-19T12:18:34;6.07;;;2.37;;
12367;SDS011;6248;49.812;6.620;2023-02-19T12:21:10;6.23;;;2.77;;
12367;SDS011;6248;49.812;6.620;2023-02-19T12:23:50;8.50;;;2.50;;
12367;SDS011;6248;49.812;6.620;2023-02-19T12:26:22;4.77;;;2.20;;
12367;SDS011;6248;49.812;6.620;2023-02-19T12:29:00;5.50;;;2.40;;
12367;SDS011;6248;49.812;6.620;2023-02-19T12:31:33;5.90;;;2.47;;
12367;SDS011;6248;49.812;6.620;2023-02-19T12:34:25;5.50;;;2.50;;
12367;SDS011;6248;49.812;6.620;2023-02-19T12:36:59;4.77;;;3.00;;
12367;SDS011;6248;49.812;6.620;2023-02-19T12:39:28;6.20;;;2.73;;
12367;SDS011;6248;49.812;6.620;2023-02-19T12:42:01;6.83;;;2.80;;
12367;SDS011;6248;49.812;6.620;2023-02-19T12:44:32;6.10;;;2.73;;
12367;SDS011;6248;49.812;6.620;2023-02-19T12:47:02;5.90;;;2.60;;
12367;SDS011;6248;49.812;6.620;2023-02-19T12:49:32;6.70;;;2.63;;
12367;SDS011;6248;49.812;6.620;2023-02-19T12:52:02;5.40;;;2.97;;
12367;SDS011;6248;49.812;6.620;2023-02-19T12:54:36;6.80;;;2.67;;
12367;SDS011;6248;49.812;6.620;2023-02-19T12:57:05;5.67;;;3.03;;
12367;SDS011;6248;49.812;6.620;2023-02-19T12:59:37;6.93;;;2.87;;
12367;SDS011;6248;49.812;6.620;2023-02-19T13:02:10;3.70;;;2.30;;
12367;SDS011;6248;49.812;6.620;2023-02-19T13:04:40;5.00;;;2.77;;
12367;SDS011;6248;49.812;6.620;2023-02-19T13:07:09;7.13;;;2.83;;
12367;SDS011;6248;49.812;6.620;2023-02-19T13:09:38;7.67;;;3.20;;
12367;SDS011;6248;49.812;6.620;2023-02-19T13:12:08;6.13;;;3.00;;
12367;SDS011;6248;49.812;6.620;2023-02-19T13:14:39;5.77;;;2.73;;
12367;SDS011;6248;49.812;6.620;2023-02-19T13:17:12;5.90;;;2.60;;
12367;SDS011;6248;49.812;6.620;2023-02-19T13:19:43;7.30;;;2.87;;
12367;SDS011;6248;49.812;6.620;2023-02-19T13:22:14;7.97;;;3.00;;
12367;SDS011;6248;49.812;6.620;2023-02-19T13:25:01;5.07;;;2.77;;
12367;SDS011;6248;49.812;6.620;2023-02-19T13:27:45;6.40;;;2.97;;
12367;SDS011;6248;49.812;6.620;2023-02-19T13:30:27;7.50;;;3.07;;
12367;SDS011;6248;49.812;6.620;2023-02-19T13:33:00;7.40;;;3.93;;
12367;SDS011;6248;49.812;6.620;2023-02-19T13:38:15;7.43;;;3.03;;
12367;SDS011;6248;49.812;6.620;2023-02-19T13:40:51;5.07;;;2.33;;
12367;SDS011;6248;49.812;6.620;2023-02-19T13:43:20;8.87;;;3.10;;
12367;SDS011;6248;49.812;6.620;2023-02-19T13:45:52;6.70;;;2.67;;
12367;SDS011;6248;49.812;6.620;2023-02-19T13:48:24;6.73;;;3.00;;
12367;SDS011;6248;49.812;6.620;2023-02-19T13:53:54;5.90;;;2.73;;
12367;SDS011;6248;49.812;6.620;2023-02-19T13:56:34;6.00;;;2.37;;
12367;SDS011;6248;49.812;6.620;2023-02-19T13:59:11;6.13;;;2.63;;
12367;SDS011;6248;49.812;6.620;2023-02-19T14:04:41;7.43;;;2.60;;
12367;SDS011;6248;49.812;6.620;2023-02-19T14:10:03;4.47;;;2.13;;
12367;SDS011;6248;49.812;6.620;2023-02-19T14:12:31;5.33;;;2.57;;
12367;SDS011;6248;49.812;6.620;2023-02-19T14:17:40;4.83;;;2.50;;
12367;SDS011;6248;49.812;6.620;2023-02-19T14:23:07;8.17;;;2.90;;
12367;SDS011;6248;49.812;6.620;2023-02-19T14:25:39;3.97;;;2.00;;
12367;SDS011;6248;49.812;6.620;2023-02-19T14:28:13;3.83;;;2.70;;
12367;SDS011;6248;49.812;6.620;2023-02-19T14:30:45;7.30;;;2.97;;
12367;SDS011;6248;49.812;6.620;2023-02-19T14:33:13;6.87;;;2.40;;
12367;SDS011;6248;49.812;6.620;2023-02-19T14:35:42;3.97;;;2.40;;
12367;SDS011;6248;49.812;6.620;2023-02-19T14:38:17;5.37;;;2.33;;
12367;SDS011;6248;49.812;6.620;2023-02-19T14:40:45;6.67;;;2.70;;
12367;SDS011;6248;49.812;6.620;2023-02-19T14:43:13;4.40;;;2.67;;
12367;SDS011;6248;49.812;6.620;2023-02-19T14:45:41;5.30;;;2.67;;
12367;SDS011;6248;49.812;6.620;2023-02-19T14:48:11;5.43;;;2.60;;
12367;SDS011;6248;49.812;6.620;2023-02-19T14:50:41;6.40;;;2.53;;
12367;SDS011;6248;49.812;6.620;2023-02-19T14:53:09;4.87;;;2.10;;
12367;SDS011;6248;49.812;6.620;2023-02-19T14:55:37;4.40;;;2.30;;
12367;SDS011;6248;49.812;6.620;2023-02-19T14:58:09;6.27;;;2.50;;
12367;SDS011;6248;49.812;6.620;2023-02-19T15:00:38;5.73;;;2.53;;
12367;SDS011;6248;49.812;6.620;2023-02-19T15:03:06;5.13;;;2.63;;
12367;SDS011;6248;49.812;6.620;2023-02-19T15:05:52;4.97;;;2.50;;
12367;SDS011;6248;49.812;6.620;2023-02-19T15:08:20;6.53;;;2.57;;
12367;SDS011;6248;49.812;6.620;2023-02-19T15:10:52;4.77;;;2.20;;
12367;SDS011;6248;49.812;6.620;2023-02-19T15:13:21;5.50;;;2.97;;
12367;SDS011;6248;49.812;6.620;2023-02-19T15:15:50;7.30;;;2.60;;
12367;SDS011;6248;49.812;6.620;2023-02-19T15:18:20;5.23;;;2.10;;
12367;SDS011;6248;49.812;6.620;2023-02-19T15:20:47;6.57;;;2.20;;
12367;SDS011;6248;49.812;6.620;2023-02-19T15:23:17;4.23;;;2.00;;
12367;SDS011;6248;49.812;6.620;2023-02-19T15:25:44;4.93;;;2.40;;
12367;SDS011;6248;49.812;6.620;2023-02-19T15:28:26;5.73;;;2.30;;
12367;SDS011;6248;49.812;6.620;2023-02-19T15:31:02;4.13;;;2.03;;
12367;SDS011;6248;49.812;6.620;2023-02-19T15:33:31;5.47;;;2.07;;
12367;SDS011;6248;49.812;6.620;2023-02-19T15:35:59;4.77;;;2.07;;
12367;SDS011;6248;49.812;6.620;2023-02-19T15:38:27;11.90;;;2.53;;